createdAt,value
2022-10-08T00:01:36.604Z,93.56
2022-10-08T00:16:39.258Z,96.39
2022-10-08T00:31:41.611Z,100.00
2022-10-08T00:46:48.711Z,100.00
2022-10-08T01:01:50.185Z,99.94
2022-10-08T01:17:03.818Z,100.00
2022-10-08T01:32:11.416Z,100.00
2022-10-08T01:47:14.747Z,100.00
2022-10-08T02:02:23.609Z,100.00
2022-10-08T02:17:27.789Z,100.00
2022-10-08T02:32:35.663Z,100.00
2022-10-08T02:47:38.997Z,100.00
2022-10-08T03:02:43.887Z,100.00
2022-10-08T03:17:47.330Z,100.00
2022-10-08T03:32:49.259Z,100.00
2022-10-08T03:47:52.435Z,100.00
2022-10-08T04:02:53.906Z,100.00
2022-10-08T04:17:55.396Z,100.00
2022-10-08T04:32:57.616Z,100.00
2022-10-08T04:47:59.084Z,100.00
2022-10-08T05:03:00.624Z,100.00
2022-10-08T05:18:02.223Z,100.00
2022-10-08T05:33:03.794Z,100.00
2022-10-08T05:48:05.252Z,81.23
2022-10-08T06:03:06.799Z,74.49
2022-10-08T06:18:08.277Z,70.69
2022-10-08T06:33:10.231Z,62.46
2022-10-08T06:48:12.376Z,66.31
2022-10-08T07:03:14.035Z,62.11
2022-10-08T07:18:16.167Z,56.18
2022-10-08T07:33:18.229Z,55.21
2022-10-08T07:48:20.692Z,55.49
2022-10-08T08:03:22.157Z,54.65
2022-10-08T08:18:24.004Z,56.46
2022-10-08T08:33:25.463Z,52.21
2022-10-08T08:48:28.942Z,51.33
2022-10-08T09:03:34.865Z,49.23
2022-10-08T09:18:37.196Z,43.65
2022-10-08T09:33:39.436Z,42.30
2022-10-08T09:48:43.316Z,44.87
2022-10-08T10:04:03.601Z,41.00
2022-10-08T10:19:08.773Z,37.09
2022-10-08T10:34:13.988Z,40.26
2022-10-08T10:49:17.447Z,40.89
2022-10-08T11:04:37.729Z,41.55
2022-10-08T11:19:41.987Z,34.89
2022-10-08T11:34:47.888Z,39.99
2022-10-08T11:49:55.580Z,40.69
2022-10-08T12:04:58.602Z,39.29
2022-10-08T12:20:01.777Z,39.75
2022-10-08T12:35:03.489Z,38.96
2022-10-08T12:50:31.422Z,40.99
2022-10-08T13:05:34.396Z,40.32
2022-10-08T13:20:35.918Z,39.67
2022-10-08T13:35:37.445Z,41.90
2022-10-08T13:50:43.337Z,42.64
2022-10-08T14:05:46.022Z,46.07
2022-10-08T14:20:50.020Z,51.62
2022-10-08T14:35:52.322Z,54.75
2022-10-08T14:50:55.985Z,59.21
2022-10-08T15:05:58.232Z,64.96
2022-10-08T15:21:00.578Z,62.99
2022-10-08T15:36:02.156Z,60.46
2022-10-08T15:51:03.912Z,59.91
2022-10-08T16:06:06.218Z,64.94
2022-10-08T16:21:07.682Z,68.66
2022-10-08T16:36:10.163Z,72.31
2022-10-08T16:51:12.223Z,70.44
2022-10-08T17:06:13.691Z,75.50
2022-10-08T17:21:16.101Z,75.97
2022-10-08T17:36:19.105Z,78.26
2022-10-08T17:51:22.101Z,76.57
2022-10-08T18:06:23.873Z,79.05
2022-10-08T18:21:25.409Z,79.91
2022-10-08T18:36:28.248Z,79.45
2022-10-08T18:51:30.189Z,79.67
2022-10-08T19:06:32.768Z,78.18
2022-10-08T19:21:35.835Z,82.25
2022-10-08T19:36:38.202Z,85.29
2022-10-08T19:51:39.906Z,88.40
2022-10-08T20:06:43.074Z,89.68
2022-10-08T20:21:44.605Z,92.38
2022-10-08T20:36:46.938Z,93.19
2022-10-08T20:51:48.482Z,96.55
2022-10-08T21:06:50.413Z,97.76
2022-10-08T21:21:52.309Z,96.72
2022-10-08T21:36:53.850Z,98.49
2022-10-08T21:51:56.098Z,100.00
2022-10-08T22:16:08.723Z,100.00
2022-10-08T22:31:11.219Z,100.00
2022-10-08T22:46:15.090Z,100.00
2022-10-08T23:01:18.033Z,100.00
2022-10-08T23:16:20.126Z,100.00
2022-10-08T23:31:23.556Z,100.00
2022-10-08T23:46:26.089Z,100.00
